Terminal Aerodrome Forecast
Issued by NWS

Home | Current Version | Previous Version | Text Only | Print | Product List | Glossary On
Versions: 1 2 3 4 5 6 7 8 9 10 11 12 13 14 15 16 17
174
FTUS43 KPAH 211120
TAFCGI
TAF
KCGI 211120Z 2112/2212 02005KT P6SM -SHRA VCTS BKN070CB
      TEMPO 2112/2115 4SM TSRA BR BKN030CB
     FM211600 03008KT 6SM -SHRA BR VCTS BKN025CB
     FM212200 03010G20KT 5SM -SHRA BR SCT007 OVC015=

USA.gov is the U.S. government's official web portal to all federal, state and local government web resources and services.